createdAt,value
2017-09-27T00:01:53.554Z,20.42
2017-09-27T00:04:22.077Z,21.75
2017-09-27T00:06:49.793Z,23.10
2017-09-27T00:09:18.367Z,23.65
2017-09-27T00:11:46.140Z,21.87
2017-09-27T00:14:14.620Z,20.62
2017-09-27T00:16:43.104Z,20.70
2017-09-27T00:19:11.675Z,26.95
2017-09-27T00:21:39.390Z,19.55
2017-09-27T00:24:07.102Z,19.77
2017-09-27T00:26:34.817Z,20.20
2017-09-27T00:29:02.544Z,24.50
2017-09-27T00:31:31.055Z,18.77
2017-09-27T00:33:58.798Z,21.83
2017-09-27T00:36:27.307Z,17.58
2017-09-27T00:38:55.086Z,22.75
2017-09-27T00:41:22.811Z,24.40
2017-09-27T00:43:51.310Z,20.73
2017-09-27T00:46:19.038Z,26.15
2017-09-27T00:48:46.783Z,21.58
2017-09-27T00:51:14.566Z,18.85
2017-09-27T00:53:42.301Z,23.08
2017-09-27T00:56:10.079Z,19.00
2017-09-27T00:58:37.867Z,26.62
2017-09-27T01:01:06.375Z,24.92
2017-09-27T01:03:34.103Z,25.23
2017-09-27T01:06:01.844Z,23.50
2017-09-27T01:08:30.482Z,25.92
2017-09-27T01:10:58.274Z,28.48
2017-09-27T01:13:26.006Z,24.30
2017-09-27T01:15:54.503Z,24.70
2017-09-27T01:18:22.248Z,26.90
2017-09-27T01:20:50.780Z,24.98
2017-09-27T01:23:18.543Z,21.95
2017-09-27T01:25:46.327Z,24.58
2017-09-27T01:28:14.127Z,23.20
2017-09-27T01:30:42.684Z,25.85
2017-09-27T01:33:10.482Z,30.27
2017-09-27T01:35:39.003Z,30.23
2017-09-27T01:38:06.782Z,22.90
2017-09-27T01:40:34.577Z,30.02
2017-09-27T01:43:02.366Z,25.70
2017-09-27T01:45:30.157Z,24.02
2017-09-27T01:47:57.970Z,20.60
2017-09-27T01:50:25.757Z,22.75
2017-09-27T01:52:54.319Z,23.92
2017-09-27T01:55:22.854Z,23.05
2017-09-27T01:57:50.668Z,22.27
2017-09-27T02:00:18.445Z,29.77
2017-09-27T02:02:46.958Z,26.67
2017-09-27T02:05:14.710Z,29.77
2017-09-27T02:07:42.442Z,25.35
2017-09-27T02:10:10.166Z,24.35
2017-09-27T02:12:37.900Z,23.60
2017-09-27T02:15:05.628Z,26.45
2017-09-27T02:17:33.350Z,27.13
2017-09-27T02:20:01.074Z,32.47
2017-09-27T02:22:29.595Z,27.35
2017-09-27T02:24:57.340Z,26.67
2017-09-27T02:27:25.066Z,32.58
2017-09-27T02:29:52.786Z,28.42
2017-09-27T02:32:20.519Z,29.00
2017-09-27T02:34:49.013Z,24.92
2017-09-27T02:37:16.731Z,31.37
2017-09-27T02:39:44.470Z,22.25
2017-09-27T02:42:12.216Z,30.12
2017-09-27T02:44:39.938Z,25.58
2017-09-27T02:47:07.679Z,23.27
2017-09-27T02:49:35.406Z,26.55
2017-09-27T02:52:03.135Z,23.90
2017-09-27T02:54:30.868Z,23.40
2017-09-27T02:56:58.588Z,23.38
2017-09-27T02:59:26.309Z,22.83
2017-09-27T03:01:54.036Z,24.65
2017-09-27T03:04:21.771Z,26.35
2017-09-27T03:06:50.250Z,27.30
2017-09-27T03:09:18.730Z,24.70
2017-09-27T03:11:47.224Z,24.80
2017-09-27T03:14:14.950Z,26.40
2017-09-27T03:16:42.684Z,32.17
2017-09-27T03:19:10.404Z,25.58
2017-09-27T03:21:38.886Z,25.27
2017-09-27T03:24:07.385Z,28.35
2017-09-27T03:26:35.120Z,27.83
2017-09-27T03:29:02.838Z,28.25
2017-09-27T03:31:30.558Z,29.45
2017-09-27T03:33:59.044Z,26.58
2017-09-27T03:36:27.535Z,25.05
2017-09-27T03:38:55.263Z,23.67
2017-09-27T03:41:22.988Z,25.77
2017-09-27T03:43:50.706Z,26.10
2017-09-27T03:46:18.422Z,21.65
2017-09-27T03:48:46.142Z,30.40
2017-09-27T03:51:14.634Z,23.75
2017-09-27T03:53:43.117Z,22.90
2017-09-27T03:56:11.654Z,23.87
2017-09-27T03:58:39.374Z,28.60
2017-09-27T04:01:07.100Z,24.65
2017-09-27T04:03:34.829Z,25.33
2017-09-27T04:06:02.558Z,26.12
2017-09-27T04:08:30.279Z,25.27
2017-09-27T04:10:57.993Z,24.48
2017-09-27T04:13:25.713Z,24.15
2017-09-27T04:15:53.443Z,23.00
2017-09-27T04:18:21.175Z,22.58
2017-09-27T04:20:49.662Z,21.65
2017-09-27T04:23:17.429Z,26.70
2017-09-27T04:25:45.149Z,25.23
2017-09-27T04:28:12.867Z,21.12
2017-09-27T04:30:40.599Z,29.40
2017-09-27T04:33:09.100Z,30.27
2017-09-27T04:35:36.819Z,23.08
2017-09-27T04:38:04.534Z,31.20
2017-09-27T04:40:32.278Z,21.45
2017-09-27T04:43:00.924Z,24.42
2017-09-27T04:45:28.795Z,27.48
2017-09-27T04:47:56.659Z,24.55
2017-09-27T04:50:24.527Z,26.15
2017-09-27T04:52:52.393Z,28.55
2017-09-27T04:55:20.260Z,24.63
2017-09-27T04:57:48.127Z,33.95
2017-09-27T05:00:15.992Z,29.30
2017-09-27T05:02:43.863Z,31.35
2017-09-27T05:05:11.732Z,34.10
2017-09-27T05:07:39.597Z,28.87
2017-09-27T05:10:07.463Z,39.90
2017-09-27T05:12:35.332Z,34.78
2017-09-27T05:15:03.199Z,35.30
2017-09-27T05:17:31.001Z,31.48
2017-09-27T05:19:59.650Z,31.30
2017-09-27T05:22:27.518Z,31.15
2017-09-27T05:24:55.385Z,35.85
2017-09-27T05:27:23.255Z,29.55
2017-09-27T05:29:51.120Z,35.20
2017-09-27T05:32:18.988Z,35.05
2017-09-27T05:34:46.957Z,34.38
2017-09-27T05:37:14.823Z,35.17
2017-09-27T05:39:42.690Z,39.30
2017-09-27T05:42:10.559Z,34.80
2017-09-27T05:44:38.426Z,30.83
2017-09-27T05:47:06.294Z,30.52
2017-09-27T05:49:34.159Z,31.42
2017-09-27T05:52:02.140Z,34.58
2017-09-27T05:54:29.997Z,36.95
2017-09-27T05:56:57.967Z,32.72
2017-09-27T05:59:25.834Z,39.20
2017-09-27T06:01:53.701Z,34.38
2017-09-27T06:04:21.569Z,38.83
2017-09-27T06:06:49.436Z,33.38
2017-09-27T06:09:17.303Z,34.10
2017-09-27T06:11:45.171Z,31.05
2017-09-27T06:14:13.037Z,30.55
2017-09-27T06:16:40.905Z,32.72
2017-09-27T06:19:08.772Z,33.35
2017-09-27T06:21:36.743Z,29.83
2017-09-27T06:24:04.610Z,36.45
2017-09-27T06:26:32.581Z,28.87
2017-09-27T06:29:00.447Z,31.62
2017-09-27T06:31:28.314Z,30.17
2017-09-27T06:33:56.182Z,31.98
2017-09-27T06:36:24.049Z,37.92
2017-09-27T06:38:52.018Z,31.55
2017-09-27T06:41:19.886Z,31.95
2017-09-27T06:43:47.752Z,29.92
2017-09-27T06:46:15.620Z,35.22
2017-09-27T06:48:43.487Z,27.08
2017-09-27T06:51:11.364Z,26.83
2017-09-27T06:53:39.223Z,31.05
2017-09-27T06:56:07.091Z,22.95
2017-09-27T06:58:34.957Z,28.25
2017-09-27T07:01:02.827Z,25.75
2017-09-27T07:03:30.691Z,23.83
2017-09-27T07:05:58.559Z,20.00
2017-09-27T07:08:26.631Z,23.23
2017-09-27T07:10:54.498Z,28.00
2017-09-27T07:13:22.365Z,26.40
2017-09-27T07:15:50.234Z,22.70
2017-09-27T07:18:18.101Z,21.62
2017-09-27T07:20:45.982Z,24.85
2017-09-27T07:23:14.553Z,22.10
2017-09-27T07:25:42.455Z,26.67
2017-09-27T07:28:11.106Z,24.92
2017-09-27T07:30:38.972Z,25.90
2017-09-27T07:33:06.847Z,24.45
2017-09-27T07:35:34.714Z,21.90
2017-09-27T07:38:02.579Z,24.20
2017-09-27T07:40:30.443Z,21.12
2017-09-27T07:42:58.314Z,26.10
2017-09-27T07:45:26.182Z,20.92
2017-09-27T07:47:54.048Z,22.95
2017-09-27T07:50:22.117Z,22.75
2017-09-27T07:52:49.985Z,20.33
2017-09-27T07:55:17.985Z,19.23
2017-09-27T07:57:46.640Z,25.90
2017-09-27T08:00:14.506Z,18.40
2017-09-27T08:02:42.373Z,18.40
2017-09-27T08:05:10.244Z,17.83
2017-09-27T08:07:38.109Z,20.37
2017-09-27T08:10:05.977Z,18.62
2017-09-27T08:12:33.843Z,15.98
2017-09-27T08:15:01.711Z,18.12
2017-09-27T08:17:29.581Z,19.12
2017-09-27T08:19:57.446Z,18.52
2017-09-27T08:22:25.312Z,16.05
2017-09-27T08:24:53.283Z,19.77
2017-09-27T08:27:21.080Z,18.55
2017-09-27T08:29:49.734Z,18.17
2017-09-27T08:32:17.601Z,21.25
2017-09-27T08:34:45.469Z,17.62
2017-09-27T08:37:13.470Z,19.77
2017-09-27T08:39:42.125Z,17.75
2017-09-27T08:42:09.988Z,24.23
2017-09-27T08:44:37.961Z,17.80
2017-09-27T08:47:05.828Z,19.08
2017-09-27T08:49:33.696Z,20.33
2017-09-27T08:52:01.564Z,22.23
2017-09-27T08:54:29.431Z,18.83
2017-09-27T08:56:57.301Z,18.58
2017-09-27T08:59:25.165Z,18.48
2017-09-27T09:01:53.135Z,20.23
2017-09-27T09:04:21.002Z,18.58
2017-09-27T09:06:48.870Z,26.33
2017-09-27T09:09:16.736Z,20.42
2017-09-27T09:11:44.604Z,18.92
2017-09-27T09:14:12.471Z,18.05
2017-09-27T09:16:40.345Z,20.12
2017-09-27T09:19:08.205Z,20.00
2017-09-27T09:21:36.074Z,20.83
2017-09-27T09:24:03.940Z,21.00
2017-09-27T09:26:31.807Z,21.12
2017-09-27T09:28:59.676Z,24.05
2017-09-27T09:31:27.543Z,19.05
2017-09-27T09:33:55.409Z,17.75
2017-09-27T09:36:23.277Z,21.30
2017-09-27T09:38:51.144Z,19.75
2017-09-27T09:41:19.041Z,20.05
2017-09-27T09:43:47.698Z,19.25
2017-09-27T09:46:15.567Z,20.23
2017-09-27T09:48:43.434Z,19.55
2017-09-27T09:51:11.301Z,17.42
2017-09-27T09:53:39.167Z,17.60
2017-09-27T09:56:07.137Z,23.83
2017-09-27T09:58:35.004Z,18.23
2017-09-27T10:01:02.872Z,22.05
2017-09-27T10:03:30.739Z,21.40
2017-09-27T10:05:58.606Z,18.80
2017-09-27T10:08:26.474Z,21.30
2017-09-27T10:10:54.342Z,18.23
2017-09-27T10:13:22.209Z,20.05
2017-09-27T10:15:50.075Z,18.52
2017-09-27T10:18:17.942Z,20.30
2017-09-27T10:20:45.809Z,21.37
2017-09-27T10:23:13.677Z,21.85
2017-09-27T10:25:41.544Z,18.35
2017-09-27T10:28:09.411Z,20.12
2017-09-27T10:30:37.279Z,23.25
2017-09-27T10:33:05.148Z,19.67
2017-09-27T10:35:33.115Z,19.12
2017-09-27T10:38:00.982Z,20.20
2017-09-27T10:40:28.852Z,22.55
2017-09-27T10:42:56.718Z,19.20
2017-09-27T10:45:24.585Z,18.55
2017-09-27T10:47:52.560Z,22.17
2017-09-27T10:50:20.427Z,22.10
2017-09-27T10:52:48.293Z,20.92
2017-09-27T10:55:16.157Z,23.95
2017-09-27T10:57:43.962Z,22.83
2017-09-27T11:00:12.612Z,25.17
2017-09-27T11:02:40.477Z,22.45
2017-09-27T11:05:08.344Z,28.33
2017-09-27T11:07:36.212Z,26.65
2017-09-27T11:10:04.078Z,29.45
2017-09-27T11:12:31.945Z,26.20
2017-09-27T11:14:59.812Z,25.45
2017-09-27T11:17:27.715Z,31.98
2017-09-27T11:19:56.366Z,26.90
2017-09-27T11:22:24.233Z,28.52
2017-09-27T11:24:52.202Z,29.10
2017-09-27T11:27:20.071Z,32.97
2017-09-27T11:29:47.938Z,25.83
2017-09-27T11:32:15.805Z,32.83
2017-09-27T11:34:43.675Z,26.70
2017-09-27T11:37:11.540Z,27.30
2017-09-27T11:39:39.438Z,23.27
2017-09-27T11:42:08.093Z,29.48
2017-09-27T11:44:35.963Z,31.42
2017-09-27T11:47:03.827Z,27.75
2017-09-27T11:49:31.695Z,29.70
2017-09-27T11:51:59.563Z,29.33
2017-09-27T11:54:27.435Z,29.85
2017-09-27T11:56:55.296Z,30.83
2017-09-27T11:59:23.164Z,26.77
2017-09-27T12:01:51.031Z,28.42
2017-09-27T12:04:18.898Z,27.77
2017-09-27T12:06:46.869Z,29.00
2017-09-27T12:09:14.736Z,25.55
2017-09-27T12:11:42.705Z,32.45
2017-09-27T12:14:10.573Z,31.70
2017-09-27T12:16:38.440Z,26.50
2017-09-27T12:19:06.307Z,30.02
2017-09-27T12:21:34.175Z,29.85
2017-09-27T12:24:02.043Z,31.15
2017-09-27T12:26:29.909Z,25.77
2017-09-27T12:28:57.778Z,30.05
2017-09-27T12:31:25.578Z,28.90
2017-09-27T12:33:54.228Z,31.30
2017-09-27T12:36:22.095Z,27.60
2017-09-27T12:38:49.963Z,29.30
2017-09-27T12:41:17.762Z,27.05
2017-09-27T12:43:46.441Z,27.87
2017-09-27T12:46:14.281Z,23.27
2017-09-27T12:48:42.149Z,25.40
2017-09-27T12:51:10.016Z,30.08
2017-09-27T12:53:37.884Z,31.15
2017-09-27T12:56:05.751Z,33.00
2017-09-27T12:58:33.619Z,29.85
2017-09-27T13:01:01.486Z,30.10
2017-09-27T13:03:29.353Z,27.35
2017-09-27T13:05:57.221Z,29.50
2017-09-27T13:08:25.091Z,25.55
2017-09-27T13:10:53.160Z,32.25
2017-09-27T13:13:20.960Z,26.35
2017-09-27T13:15:49.611Z,30.58
2017-09-27T13:18:17.479Z,31.33
2017-09-27T13:20:45.345Z,27.83
2017-09-27T13:23:13.213Z,27.48
2017-09-27T13:25:41.080Z,30.08
2017-09-27T13:28:08.948Z,30.48
2017-09-27T13:30:36.814Z,27.65
2017-09-27T13:33:04.682Z,27.00
2017-09-27T13:35:32.814Z,30.12
2017-09-27T13:38:00.623Z,28.90
2017-09-27T13:40:28.489Z,29.95
2017-09-27T13:42:56.355Z,28.87
2017-09-27T13:45:24.224Z,29.02
2017-09-27T13:47:52.090Z,27.00
2017-09-27T13:50:20.674Z,25.60
2017-09-27T13:52:48.542Z,26.17
2017-09-27T13:55:16.409Z,29.65
2017-09-27T13:57:44.276Z,31.95
2017-09-27T14:00:12.142Z,25.05
2017-09-27T14:02:40.011Z,31.37
2017-09-27T14:05:07.883Z,29.02
2017-09-27T14:07:35.752Z,28.80
2017-09-27T14:10:03.620Z,28.10
2017-09-27T14:12:31.690Z,24.25
2017-09-27T14:14:59.557Z,21.90
2017-09-27T14:17:27.527Z,23.92
2017-09-27T14:19:55.391Z,24.08
2017-09-27T14:22:23.258Z,21.05
2017-09-27T14:24:51.124Z,26.00
2017-09-27T14:27:18.991Z,22.55
2017-09-27T14:29:47.065Z,19.73
2017-09-27T14:32:14.930Z,19.65
2017-09-27T14:34:42.799Z,19.15
2017-09-27T14:37:10.665Z,25.05
2017-09-27T14:39:38.536Z,27.50
2017-09-27T14:42:06.405Z,19.12
2017-09-27T14:44:34.267Z,25.83
2017-09-27T14:47:02.134Z,22.62
2017-09-27T14:49:30.001Z,21.87
2017-09-27T14:51:57.868Z,22.58
2017-09-27T14:54:25.736Z,26.33
2017-09-27T14:56:53.602Z,14.35
2017-09-27T14:59:21.399Z,16.58
2017-09-27T15:01:50.055Z,18.25
2017-09-27T15:04:17.922Z,14.80
2017-09-27T15:06:45.789Z,17.23
2017-09-27T15:09:13.658Z,12.90
2017-09-27T15:11:41.524Z,19.27
2017-09-27T15:14:09.390Z,13.13
2017-09-27T15:16:37.258Z,17.50
2017-09-27T15:19:05.126Z,15.90
2017-09-27T15:21:32.992Z,16.12
2017-09-27T15:24:00.860Z,15.73
2017-09-27T15:26:28.727Z,12.80
2017-09-27T15:28:56.595Z,18.33
2017-09-27T15:31:24.461Z,18.48
2017-09-27T15:33:52.328Z,15.73
2017-09-27T15:36:20.197Z,15.13
2017-09-27T15:38:48.065Z,21.65
2017-09-27T15:41:15.933Z,15.02
2017-09-27T15:43:43.798Z,12.60
2017-09-27T15:46:11.665Z,22.02
2017-09-27T15:48:39.533Z,13.75
2017-09-27T15:51:10.891Z,16.20
2017-09-27T15:53:40.275Z,17.80
2017-09-27T15:56:08.152Z,14.23
2017-09-27T15:58:35.946Z,12.68
2017-09-27T16:01:03.785Z,14.20
2017-09-27T16:03:31.653Z,12.80
2017-09-27T16:05:59.376Z,13.15
2017-09-27T16:08:27.186Z,12.45
2017-09-27T16:11:11.142Z,16.60
2017-09-27T16:13:41.246Z,13.88
2017-09-27T16:16:09.218Z,12.73
2017-09-27T16:18:37.083Z,13.00
2017-09-27T16:21:04.949Z,13.73
2017-09-27T16:23:32.817Z,14.18
2017-09-27T16:26:00.684Z,14.93
2017-09-27T16:28:28.552Z,13.40
2017-09-27T16:30:56.352Z,20.80
2017-09-27T16:33:25.004Z,13.85
2017-09-27T16:35:52.871Z,17.17
2017-09-27T16:38:20.739Z,13.62
2017-09-27T16:40:48.606Z,13.75
2017-09-27T16:43:16.473Z,16.30
2017-09-27T16:45:44.340Z,17.75
2017-09-27T16:48:12.207Z,15.75
2017-09-27T16:50:40.076Z,13.52
2017-09-27T16:53:08.147Z,15.50
2017-09-27T16:55:36.014Z,14.32
2017-09-27T16:58:03.886Z,15.73
2017-09-27T17:00:31.612Z,14.90
2017-09-27T17:02:59.338Z,16.00
2017-09-27T17:05:27.176Z,19.80
2017-09-27T17:07:55.044Z,22.33
2017-09-27T17:10:22.910Z,15.02
2017-09-27T17:12:50.778Z,22.87
2017-09-27T17:15:18.645Z,16.83
2017-09-27T17:17:46.513Z,19.42
2017-09-27T17:20:14.379Z,18.37
2017-09-27T17:22:42.252Z,17.65
2017-09-27T17:25:10.117Z,14.93
2017-09-27T17:27:37.989Z,16.92
2017-09-27T17:30:05.854Z,21.52
2017-09-27T17:32:33.721Z,17.95
2017-09-27T17:35:01.589Z,18.58
2017-09-27T17:37:29.455Z,21.23
2017-09-27T17:39:57.431Z,20.80
2017-09-27T17:42:25.290Z,18.83
2017-09-27T17:44:53.156Z,18.98
2017-09-27T17:47:21.022Z,18.60
2017-09-27T17:49:48.890Z,19.30
2017-09-27T17:52:16.758Z,20.65
2017-09-27T17:54:44.625Z,20.05
2017-09-27T17:57:12.492Z,20.10
2017-09-27T17:59:40.362Z,20.23
2017-09-27T18:02:08.233Z,16.27
2017-09-27T18:04:41.727Z,17.83
2017-09-27T18:07:30.176Z,17.87
2017-09-27T18:10:03.675Z,19.37
2017-09-27T18:12:37.277Z,19.95
2017-09-27T18:15:23.986Z,20.20
2017-09-27T18:17:52.673Z,18.10
2017-09-27T18:20:20.540Z,21.60
2017-09-27T18:22:48.407Z,20.95
2017-09-27T18:25:16.484Z,19.35
2017-09-27T18:27:44.346Z,23.30
2017-09-27T18:30:12.213Z,18.83
2017-09-27T18:32:40.080Z,21.67
2017-09-27T18:35:07.952Z,20.10
2017-09-27T18:37:35.815Z,26.05
2017-09-27T18:40:03.785Z,21.85
2017-09-27T18:42:31.653Z,22.90
2017-09-27T18:44:59.522Z,18.73
2017-09-27T18:47:36.199Z,22.08
2017-09-27T18:50:06.289Z,23.30
2017-09-27T18:52:35.179Z,21.02
2017-09-27T18:55:03.106Z,25.35
2017-09-27T18:57:31.759Z,21.15
2017-09-27T18:59:59.627Z,25.15
2017-09-27T19:02:27.630Z,20.62
2017-09-27T19:04:56.284Z,23.55
2017-09-27T19:07:28.259Z,20.48
2017-09-27T19:09:56.216Z,21.90
2017-09-27T19:12:24.084Z,22.13
2017-09-27T19:14:51.953Z,17.62
2017-09-27T19:17:19.817Z,18.65
2017-09-27T19:19:47.788Z,20.55
2017-09-27T19:22:15.655Z,18.45
2017-09-27T19:24:43.524Z,20.65
2017-09-27T19:27:11.391Z,18.30
2017-09-27T19:29:39.257Z,23.90
2017-09-27T19:32:07.227Z,20.02
2017-09-27T19:34:35.096Z,19.40
2017-09-27T19:37:03.064Z,26.05
2017-09-27T19:39:30.931Z,26.73
2017-09-27T19:41:58.798Z,22.58
2017-09-27T19:44:26.666Z,21.70
2017-09-27T19:46:54.532Z,19.30
2017-09-27T19:49:22.371Z,23.67
2017-09-27T19:51:50.165Z,22.70
2017-09-27T19:54:18.035Z,22.55
2017-09-27T19:56:45.907Z,17.77
2017-09-27T19:59:13.773Z,17.70
2017-09-27T20:01:41.638Z,20.40
2017-09-27T20:04:09.502Z,19.40
2017-09-27T20:06:37.472Z,23.98
2017-09-27T20:09:05.339Z,20.95
2017-09-27T20:11:33.205Z,23.05
2017-09-27T20:14:01.073Z,20.70
2017-09-27T20:16:28.944Z,19.73
2017-09-27T20:18:56.808Z,20.42
2017-09-27T20:21:24.676Z,18.92
2017-09-27T20:23:52.541Z,19.25
2017-09-27T20:26:20.409Z,19.85
2017-09-27T20:28:48.277Z,19.10
2017-09-27T20:31:16.153Z,25.17
2017-09-27T20:33:44.011Z,19.42
2017-09-27T20:36:11.878Z,25.80
2017-09-27T20:38:39.746Z,18.62
2017-09-27T20:41:07.722Z,23.10
2017-09-27T20:43:35.587Z,20.23
2017-09-27T20:46:03.454Z,21.08
2017-09-27T20:48:31.318Z,18.58
2017-09-27T20:50:59.189Z,20.10
2017-09-27T20:53:27.056Z,23.40
2017-09-27T20:55:54.924Z,20.95
2017-09-27T20:58:22.789Z,20.33
2017-09-27T21:00:50.654Z,20.48
2017-09-27T21:03:18.522Z,23.45
2017-09-27T21:05:46.388Z,19.65
2017-09-27T21:08:14.256Z,22.15
2017-09-27T21:10:42.123Z,18.85
2017-09-27T21:13:09.992Z,17.50
2017-09-27T21:15:38.062Z,23.30
2017-09-27T21:18:05.958Z,19.83
2017-09-27T21:20:34.616Z,19.20
2017-09-27T21:23:02.484Z,19.95
2017-09-27T21:25:30.352Z,19.42
2017-09-27T21:27:58.218Z,23.85
2017-09-27T21:30:26.086Z,19.60
2017-09-27T21:32:59.495Z,20.42
2017-09-27T21:35:30.666Z,21.00
2017-09-27T21:38:02.579Z,20.85
2017-09-27T21:40:33.909Z,21.30
2017-09-27T21:43:05.294Z,21.45
2017-09-27T21:45:37.069Z,17.58
2017-09-27T21:48:08.579Z,21.55
2017-09-27T21:50:40.605Z,19.73
2017-09-27T21:53:13.574Z,21.02
2017-09-27T21:55:46.234Z,19.35
2017-09-27T21:58:18.956Z,19.67
2017-09-27T22:00:51.041Z,21.85
2017-09-27T22:03:21.854Z,25.42
2017-09-27T22:05:54.167Z,22.02
2017-09-27T22:08:24.483Z,21.45
2017-09-27T22:10:54.586Z,20.92
2017-09-27T22:13:24.983Z,20.60
2017-09-27T22:15:55.373Z,21.80
2017-09-27T22:18:28.016Z,27.30
2017-09-27T22:21:00.196Z,21.30
2017-09-27T22:23:33.451Z,32.95
2017-09-27T22:26:07.325Z,22.05
2017-09-27T22:28:40.632Z,22.40
2017-09-27T22:31:13.071Z,21.40
2017-09-27T22:33:45.510Z,21.17
2017-09-27T22:36:18.906Z,24.55
2017-09-27T22:38:51.728Z,21.35
2017-09-27T22:41:24.004Z,29.35
2017-09-27T22:43:55.695Z,21.48
2017-09-27T22:46:26.390Z,23.23
2017-09-27T22:48:57.772Z,21.90
2017-09-27T22:51:29.036Z,24.33
2017-09-27T22:53:59.931Z,24.83
2017-09-27T22:56:30.918Z,23.17
2017-09-27T22:59:03.148Z,28.52
2017-09-27T23:01:35.506Z,23.33
2017-09-27T23:04:07.981Z,25.23
2017-09-27T23:06:40.885Z,29.25
2017-09-27T23:09:13.790Z,24.33
2017-09-27T23:11:46.466Z,32.08
2017-09-27T23:14:17.976Z,29.20
2017-09-27T23:16:49.506Z,27.95
2017-09-27T23:19:20.829Z,21.65
2017-09-27T23:21:52.470Z,33.35
2017-09-27T23:24:23.179Z,30.25
2017-09-27T23:26:54.217Z,28.55
2017-09-27T23:29:26.879Z,26.62
2017-09-27T23:31:59.571Z,30.10
2017-09-27T23:34:32.410Z,26.67
2017-09-27T23:37:05.362Z,26.67
2017-09-27T23:39:38.192Z,25.88
2017-09-27T23:42:10.929Z,26.17
2017-09-27T23:44:43.931Z,28.38
2017-09-27T23:47:16.668Z,26.90
2017-09-27T23:49:49.225Z,27.50
2017-09-27T23:52:22.402Z,28.38
2017-09-27T23:54:53.370Z,27.55
2017-09-27T23:57:24.688Z,23.35
2017-09-27T23:59:55.387Z,24.15
